Time;durP1;ratioP1;P1;durP2;ratioP2;P2;SDS_P1;SDS_P2;PMS_P1;PMS_P2;Temp;Humidity;BMP_temperature;BMP_pressure;BME280_temperature;BME280_humidity;BME280_pressure;Samples;Min_cycle;Max_cycle;Signal;HPM_P1;HPM_P2
2022/03/28 00:00:10;;;;;;;;;;;;;;;17.52;49.75;100464.50;2112124;28;19916;-65
2022/03/28 00:01:10;;;;;;;;;;;;;;;17.55;49.83;100469.69;2110788;28;19989;-64
2022/03/28 00:02:11;;;;;;;;;;;;;;;17.54;49.80;100466.09;2107519;28;19912;-65
2022/03/28 00:03:11;;;;;;;;;;;;;;;17.54;49.76;100463.38;2107414;28;19947;-64
2022/03/28 00:04:12;;;;;;;;;;;;;;;17.54;50.12;100466.09;2104903;28;19919;-65
2022/03/28 00:05:16;;;;;;;;;;;;;;;17.53;50.07;100467.09;2106870;28;20003;-64
2022/03/28 00:06:16;;;;;;;;;;;;;;;17.55;49.83;100464.25;2115717;28;19996;-64
2022/03/28 00:07:17;;;;;;;;;;;;;;;17.54;50.11;100463.38;2115775;28;19920;-65
2022/03/28 00:08:17;;;;;;;;;;;;;;;17.55;49.86;100466.97;2105012;28;20446;-65
2022/03/28 00:09:17;;;;;;;;;;;;;;;17.52;50.05;100449.00;2098439;28;19912;-65
2022/03/28 00:10:18;;;;;;;;;;;;;;;17.54;49.75;100457.94;2106844;28;19973;-65
2022/03/28 00:11:19;;;;;;;;;;;;;;;17.54;50.09;100457.94;2107778;28;20274;-65
2022/03/28 00:12:19;;;;;;;;;;;;;;;17.55;49.77;100464.25;2107433;28;20386;-65
2022/03/28 00:13:19;;;;;;;;;;;;;;;17.54;49.70;100466.09;2107286;28;19919;-65
2022/03/28 00:14:20;;;;;;;;;;;;;;;17.54;49.83;100457.94;2107147;28;19964;-65
2022/03/28 00:15:20;;;;;;;;;;;;;;;17.53;49.71;100456.19;2098192;28;20009;-65
2022/03/28 00:16:20;;;;;;;;;;;;;;;17.52;49.80;100457.19;2098175;28;20390;-65
2022/03/28 00:17:21;;;;;;;;;;;;;;;17.52;49.70;100454.47;2107413;28;20295;-65
2022/03/28 00:18:21;;;;;;;;;;;;;;;17.52;49.73;100454.47;2110817;28;19912;-65
2022/03/28 00:19:21;;;;;;;;;;;;;;;17.51;49.81;100452.72;2115773;28;20438;-63
2022/03/28 00:20:23;;;;;;;;;;;;;;;17.52;49.83;100453.59;2106620;28;19912;-64
2022/03/28 00:21:23;;;;;;;;;;;;;;;17.52;49.82;100453.59;2106738;28;19912;-65
2022/03/28 00:22:24;;;;;;;;;;;;;;;17.51;50.06;100451.84;2115294;28;20344;-63
2022/03/28 00:23:25;;;;;;;;;;;;;;;17.52;49.94;100453.59;2115799;28;19912;-64
2022/03/28 00:24:25;;;;;;;;;;;;;;;17.51;49.99;100450.00;2115513;28;19924;-64
2022/03/28 00:25:26;;;;;;;;;;;;;;;17.51;49.88;100451.84;2115661;28;19912;-64
2022/03/28 00:26:26;;;;;;;;;;;;;;;17.51;49.80;100449.13;2115807;28;19911;-65
2022/03/28 00:27:26;;;;;;;;;;;;;;;17.50;49.95;100448.28;2115590;28;19959;-65
2022/03/28 00:28:27;;;;;;;;;;;;;;;17.50;49.87;100451.00;2115800;28;20277;-65
2022/03/28 00:29:27;;;;;;;;;;;;;;;17.51;49.99;100450.00;2115787;28;20257;-65
2022/03/28 00:30:28;;;;;;;;;;;;;;;17.50;50.04;100453.72;2115713;28;20001;-65
2022/03/28 00:31:28;;;;;;;;;;;;;;;17.51;50.17;100452.72;2115593;28;19916;-64
2022/03/28 00:32:29;;;;;;;;;;;;;;;17.51;50.15;100451.84;2115823;28;19965;-64
2022/03/28 00:33:29;;;;;;;;;;;;;;;17.51;50.39;100452.72;2115479;28;19919;-64
2022/03/28 00:34:29;;;;;;;;;;;;;;;17.52;50.07;100454.47;2115912;28;19919;-64
2022/03/28 00:35:30;;;;;;;;;;;;;;;17.52;50.33;100454.47;2115532;28;19912;-64
2022/03/28 00:36:30;;;;;;;;;;;;;;;17.52;50.23;100443.56;2115795;28;19911;-65
2022/03/28 00:37:31;;;;;;;;;;;;;;;17.55;50.25;100458.78;2115702;28;19916;-64
2022/03/28 00:38:31;;;;;;;;;;;;;;;17.55;50.10;100453.34;2115691;28;19912;-64
2022/03/28 00:39:31;;;;;;;;;;;;;;;17.55;50.17;100454.19;2115671;28;19912;-63
2022/03/28 00:40:32;;;;;;;;;;;;;;;17.55;50.02;100448.75;2115853;28;19951;-64
2022/03/28 00:41:33;;;;;;;;;;;;;;;17.57;49.95;100446.75;2115614;28;20060;-64
2022/03/28 00:42:34;;;;;;;;;;;;;;;17.56;49.93;100450.50;2115515;28;19984;-64
2022/03/28 00:43:36;;;;;;;;;;;;;;;17.57;49.97;100449.47;2106519;28;19912;-65
2022/03/28 00:44:37;;;;;;;;;;;;;;;17.56;50.21;100445.03;2106381;28;20026;-65
2022/03/28 00:45:38;;;;;;;;;;;;;;;17.56;50.13;100453.22;2106651;28;19912;-65
2022/03/28 00:46:39;;;;;;;;;;;;;;;17.56;50.16;100455.94;2106662;28;19916;-65
2022/03/28 00:47:40;;;;;;;;;;;;;;;17.56;50.22;100455.94;2106376;28;19908;-65
2022/03/28 00:48:42;;;;;;;;;;;;;;;17.56;50.27;100460.50;2115695;28;19933;-65
2022/03/28 00:49:42;;;;;;;;;;;;;;;17.55;50.10;100454.19;2115357;28;19911;-65
2022/03/28 00:50:43;;;;;;;;;;;;;;;17.55;50.16;100448.75;2115478;28;19964;-64
2022/03/28 00:51:44;;;;;;;;;;;;;;;17.55;50.20;100451.47;2115563;28;19911;-65
2022/03/28 00:52:45;;;;;;;;;;;;;;;17.56;50.22;100453.22;2115442;28;19970;-65
2022/03/28 00:53:46;;;;;;;;;;;;;;;17.56;50.02;100455.94;2115604;28;19912;-65
2022/03/28 00:54:46;;;;;;;;;;;;;;;17.53;50.30;100450.72;2115551;28;19915;-65
2022/03/28 00:55:46;;;;;;;;;;;;;;;17.55;50.38;100454.19;2114409;28;19961;-65
2022/03/28 00:56:48;;;;;;;;;;;;;;;17.55;50.21;100446.00;2106448;28;19912;-64
2022/03/28 00:57:48;;;;;;;;;;;;;;;17.54;50.39;100436.13;2106405;28;19924;-64
2022/03/28 00:58:49;;;;;;;;;;;;;;;17.54;50.33;100444.31;2106529;28;20394;-64
2022/03/28 00:59:49;;;;;;;;;;;;;;;17.54;50.13;100440.69;2115530;28;20367;-64
2022/03/28 01:00:50;;;;;;;;;;;;;;;17.54;50.22;100441.56;2115449;28;19916;-64
2022/03/28 01:01:50;;;;;;;;;;;;;;;17.52;50.10;100446.28;2106653;28;19912;-64
2022/03/28 01:02:50;;;;;;;;;;;;;;;17.54;50.14;100441.56;2106838;28;19955;-64
2022/03/28 01:03:51;;;;;;;;;;;;;;;17.53;50.33;100445.28;2115507;28;19919;-64
2022/03/28 01:04:51;;;;;;;;;;;;;;;17.54;50.33;100446.13;2115532;28;19918;-64
2022/03/28 01:05:52;;;;;;;;;;;;;;;17.55;50.11;100446.00;2115582;28;19911;-65
2022/03/28 01:06:52;;;;;;;;;;;;;;;17.54;50.17;100447.03;2106405;28;20252;-65
2022/03/28 01:07:53;;;;;;;;;;;;;;;17.54;50.20;100441.56;2106404;28;19958;-65
2022/03/28 01:08:53;;;;;;;;;;;;;;;17.55;50.11;100443.28;2115475;28;19911;-65
2022/03/28 01:09:55;;;;;;;;;;;;;;;17.54;50.15;100441.56;2115489;28;20064;-64
2022/03/28 01:10:56;;;;;;;;;;;;;;;17.54;50.21;100446.13;2115243;28;19912;-64
2022/03/28 01:11:58;;;;;;;;;;;;;;;17.54;50.12;100444.31;2115568;28;20354;-64
2022/03/28 01:13:00;;;;;;;;;;;;;;;17.54;49.98;100438.84;2115452;28;19908;-65
2022/03/28 01:14:00;;;;;;;;;;;;;;;17.53;50.20;100439.81;2115354;28;19912;-64
2022/03/28 01:15:01;;;;;;;;;;;;;;;17.55;50.22;100442.44;2115379;28;19916;-64
2022/03/28 01:16:02;;;;;;;;;;;;;;;17.54;50.33;100436.13;2097836;28;20294;-64
2022/03/28 01:18:27;;;;;;;;;;;;;;;17.53;50.13;100433.53;2115349;28;19912;-64
2022/03/28 01:19:27;;;;;;;;;;;;;;;17.54;50.01;100441.56;2115601;28;19912;-64
2022/03/28 01:20:28;;;;;;;;;;;;;;;17.52;50.23;100432.66;2115284;28;19920;-64
2022/03/28 01:21:28;;;;;;;;;;;;;;;17.51;50.16;100428.19;2115374;28;19922;-64
2022/03/28 01:22:28;;;;;;;;;;;;;;;17.52;49.94;100432.66;2116640;28;19922;-64
2022/03/28 01:23:29;;;;;;;;;;;;;;;17.51;50.12;100430.91;2106112;28;19916;-64
2022/03/28 01:24:30;;;;;;;;;;;;;;;17.50;49.97;100434.66;2099844;28;19913;-64
2022/03/28 01:25:31;;;;;;;;;;;;;;;17.50;50.05;100440.09;2099566;28;19916;-64
2022/03/28 01:26:31;;;;;;;;;;;;;;;17.51;50.01;100430.06;2099785;28;19920;-65
2022/03/28 01:27:32;;;;;;;;;;;;;;;17.50;50.29;100429.19;2107956;28;19912;-64
2022/03/28 01:28:33;;;;;;;;;;;;;;;17.51;49.88;100430.06;2108203;28;19930;-64
2022/03/28 01:29:33;;;;;;;;;;;;;;;17.50;50.07;100434.66;2108590;28;19912;-64
2022/03/28 01:30:33;;;;;;;;;;;;;;;17.50;50.12;100429.19;2110390;28;19912;-64
2022/03/28 01:31:37;;;;;;;;;;;;;;;17.50;49.99;100428.34;2117198;28;20400;-65
2022/03/28 01:32:38;;;;;;;;;;;;;;;17.50;50.14;100420.16;2116759;28;19912;-64
2022/03/28 01:33:38;;;;;;;;;;;;;;;17.51;49.99;100424.59;2117121;28;20381;-64
2022/03/28 01:34:38;;;;;;;;;;;;;;;17.49;50.09;100419.31;2107902;28;20362;-65
2022/03/28 01:35:40;;;;;;;;;;;;;;;17.51;50.13;100420.00;2108078;28;20290;-64
2022/03/28 01:36:40;;;;;;;;;;;;;;;17.51;50.24;100413.69;2107950;28;20033;-64
2022/03/28 01:37:40;;;;;;;;;;;;;;;17.51;49.95;100421.88;2107967;28;19924;-64
2022/03/28 01:38:41;;;;;;;;;;;;;;;17.51;50.09;100417.28;2107982;28;19980;-64
2022/03/28 01:39:41;;;;;;;;;;;;;;;17.51;50.13;100420.00;2107920;28;19916;-64
2022/03/28 01:40:43;;;;;;;;;;;;;;;17.51;49.98;100411.84;2107983;28;19919;-64
2022/03/28 01:41:43;;;;;;;;;;;;;;;17.51;50.12;100409.09;2117007;28;19972;-64
2022/03/28 01:42:45;;;;;;;;;;;;;;;17.52;50.07;100405.41;2117026;28;20426;-64
2022/03/28 01:43:45;;;;;;;;;;;;;;;17.52;49.98;100416.31;2116698;28;19922;-64
2022/03/28 01:44:49;;;;;;;;;;;;;;;17.51;49.98;100408.25;2117081;28;19918;-64
2022/03/28 01:45:50;;;;;;;;;;;;;;;17.51;50.00;100406.38;2116941;28;20014;-64
2022/03/28 01:46:50;;;;;;;;;;;;;;;17.51;50.06;100408.25;2117051;28;19911;-64
2022/03/28 01:47:51;;;;;;;;;;;;;;;17.51;49.92;100405.53;2116732;28;20373;-64
2022/03/28 01:48:54;;;;;;;;;;;;;;;17.51;49.89;100406.38;2117123;28;20421;-65
2022/03/28 01:49:54;;;;;;;;;;;;;;;17.50;49.97;100407.38;2117140;28;19916;-65
2022/03/28 01:50:54;;;;;;;;;;;;;;;17.50;50.15;100404.66;2113366;28;19917;-65
2022/03/28 01:51:55;;;;;;;;;;;;;;;17.50;50.03;100404.66;2112517;28;20285;-65
2022/03/28 01:52:55;;;;;;;;;;;;;;;17.49;49.92;100405.69;2111088;28;19961;-65
2022/03/28 01:53:58;;;;;;;;;;;;;;;17.48;50.04;100403.94;2107622;28;19920;-65
2022/03/28 01:54:58;;;;;;;;;;;;;;;17.50;50.04;100401.09;2108232;28;19916;-65
2022/03/28 01:55:59;;;;;;;;;;;;;;;17.49;50.10;100402.06;2116852;28;19918;-65
2022/03/28 01:56:59;;;;;;;;;;;;;;;17.48;50.03;100398.47;2107718;28;19912;-65
2022/03/28 01:57:59;;;;;;;;;;;;;;;17.48;49.94;100403.94;2107736;28;19986;-65
2022/03/28 01:59:01;;;;;;;;;;;;;;;17.47;50.13;100404.94;2104432;28;19935;-65
2022/03/28 02:00:01;;;;;;;;;;;;;;;17.48;50.04;100403.94;2107837;28;19913;-65
2022/03/28 02:01:01;;;;;;;;;;;;;;;17.47;50.04;100398.63;2116691;28;19911;-65
2022/03/28 02:02:02;;;;;;;;;;;;;;;17.48;50.07;100403.06;2107773;28;19978;-65
2022/03/28 02:03:02;;;;;;;;;;;;;;;17.48;49.97;100400.34;2103844;28;19912;-65
2022/03/28 02:04:02;;;;;;;;;;;;;;;17.47;49.99;100396.75;2108334;28;20380;-65
2022/03/28 02:05:04;;;;;;;;;;;;;;;17.47;50.28;100396.75;2112422;28;19915;-65
2022/03/28 02:06:05;;;;;;;;;;;;;;;17.47;50.17;100396.75;2116965;28;19912;-65
2022/03/28 02:07:05;;;;;;;;;;;;;;;17.47;50.24;100396.75;2116727;28;19926;-65
2022/03/28 02:08:06;;;;;;;;;;;;;;;17.48;50.34;100390.31;2116844;28;19911;-65
2022/03/28 02:09:06;;;;;;;;;;;;;;;17.47;50.09;100394.03;2116720;28;19912;-65
2022/03/28 02:10:08;;;;;;;;;;;;;;;17.47;49.94;100396.75;2116967;28;19916;-65
2022/03/28 02:11:08;;;;;;;;;;;;;;;17.47;50.07;100391.31;2116682;28;19918;-65
2022/03/28 02:12:09;;;;;;;;;;;;;;;17.47;50.10;100391.31;2116776;28;19923;-65
2022/03/28 02:13:09;;;;;;;;;;;;;;;17.47;50.01;100391.31;2107496;28;20007;-65
2022/03/28 02:14:09;;;;;;;;;;;;;;;17.47;49.95;100388.59;2107586;28;19917;-64
2022/03/28 02:15:10;;;;;;;;;;;;;;;17.47;50.04;100388.59;2107606;28;19912;-64
2022/03/28 02:16:10;;;;;;;;;;;;;;;17.47;50.15;100391.31;2116640;28;19916;-64
2022/03/28 02:17:11;;;;;;;;;;;;;;;17.47;49.96;100387.72;2107651;28;20417;-64
2022/03/28 02:18:11;;;;;;;;;;;;;;;17.46;50.13;100383.25;2107629;28;20366;-64
2022/03/28 02:19:11;;;;;;;;;;;;;;;17.45;49.99;100387.84;2116700;28;19973;-64
2022/03/28 02:20:12;;;;;;;;;;;;;;;17.46;50.21;100384.13;2116765;28;19912;-64
2022/03/28 02:21:12;;;;;;;;;;;;;;;17.46;50.11;100389.56;2116747;28;19919;-64
2022/03/28 02:22:13;;;;;;;;;;;;;;;17.46;50.03;100381.38;2116765;28;20004;-64
2022/03/28 02:23:13;;;;;;;;;;;;;;;17.45;49.99;100385.13;2116535;28;19911;-64
2022/03/28 02:24:13;;;;;;;;;;;;;;;17.45;50.25;100385.13;2116886;28;19919;-64
2022/03/28 02:25:15;;;;;;;;;;;;;;;17.45;50.09;100382.41;2116785;28;19955;-64
2022/03/28 02:26:15;;;;;;;;;;;;;;;17.44;50.13;100380.69;2116617;28;20425;-64
2022/03/28 02:27:16;;;;;;;;;;;;;;;17.46;50.21;100385.97;2107485;28;20267;-64
2022/03/28 02:28:16;;;;;;;;;;;;;;;17.44;50.13;100380.69;2104685;28;20358;-63
2022/03/28 02:29:16;;;;;;;;;;;;;;;17.44;50.25;100375.22;2115859;28;19912;-64
2022/03/28 02:30:17;;;;;;;;;;;;;;;17.44;50.38;100374.34;2108421;28;19912;-64
2022/03/28 02:31:17;;;;;;;;;;;;;;;17.44;50.14;100377.97;2107471;28;20343;-64
2022/03/28 02:32:17;;;;;;;;;;;;;;;17.43;50.13;100373.47;2107445;28;20006;-64
2022/03/28 02:33:18;;;;;;;;;;;;;;;17.43;50.13;100368.03;2115907;28;19930;-64
2022/03/28 02:34:18;;;;;;;;;;;;;;;17.43;50.21;100372.63;2116598;28;19926;-64
2022/03/28 02:35:18;;;;;;;;;;;;;;;17.44;50.07;100374.34;2116505;28;19951;-64
2022/03/28 02:36:19;;;;;;;;;;;;;;;17.44;50.11;100374.34;2116571;28;20374;-65
2022/03/28 02:37:19;;;;;;;;;;;;;;;17.43;50.24;100373.47;2116593;28;19912;-65
2022/03/28 02:38:19;;;;;;;;;;;;;;;17.43;50.31;100370.75;2111581;28;20386;-64
2022/03/28 02:39:19;;;;;;;;;;;;;;;17.44;50.25;100364.34;2108224;28;19912;-64
2022/03/28 02:40:20;;;;;;;;;;;;;;;17.44;50.17;100374.34;2113224;28;19923;-64
2022/03/28 02:41:20;;;;;;;;;;;;;;;17.44;50.34;100369.78;2116290;28;19912;-64
2022/03/28 02:42:23;;;;;;;;;;;;;;;17.45;50.35;100367.91;2116495;28;19912;-65
2022/03/28 02:43:23;;;;;;;;;;;;;;;17.44;50.27;100369.78;2116171;28;19911;-65
2022/03/28 02:44:24;;;;;;;;;;;;;;;17.45;50.06;100376.09;2112941;28;20396;-65
2022/03/28 02:45:29;;;;;;;;;;;;;;;17.45;50.26;100366.03;2116385;28;19912;-65
2022/03/28 02:46:30;;;;;;;;;;;;;;;17.44;50.23;100358.88;2116429;28;20338;-65
2022/03/28 02:47:30;;;;;;;;;;;;;;;17.44;50.10;100368.91;2116420;28;19919;-65
2022/03/28 02:48:30;;;;;;;;;;;;;;;17.43;50.00;100365.31;2116404;28;19951;-65
2022/03/28 02:49:31;;;;;;;;;;;;;;;17.45;50.22;100362.47;2116288;28;19923;-65
2022/03/28 02:50:32;;;;;;;;;;;;;;;17.44;50.22;100366.16;2116402;28;20374;-64
2022/03/28 02:51:33;;;;;;;;;;;;;;;17.43;50.11;100362.59;2116592;28;19912;-65
2022/03/28 02:52:33;;;;;;;;;;;;;;;17.42;50.08;100358.16;2115472;28;20377;-65
2022/03/28 02:53:33;;;;;;;;;;;;;;;17.43;50.14;100357.13;2116293;28;20323;-66
2022/03/28 02:54:33;;;;;;;;;;;;;;;17.43;50.26;100368.03;2116381;28;19912;-65
2022/03/28 02:55:34;;;;;;;;;;;;;;;17.42;50.30;100360.88;2116352;28;19965;-64
2022/03/28 02:56:34;;;;;;;;;;;;;;;17.42;50.26;100359.97;2116445;28;19951;-65
2022/03/28 02:57:35;;;;;;;;;;;;;;;17.42;50.38;100366.31;2111395;28;19915;-65
2022/03/28 02:58:35;;;;;;;;;;;;;;;17.40;50.35;100349.22;2116452;28;19911;-64
2022/03/28 02:59:35;;;;;;;;;;;;;;;17.41;50.37;100353.66;2116195;28;19912;-62
2022/03/28 03:00:36;;;;;;;;;;;;;;;17.41;50.42;100355.53;2116434;28;19919;-64
2022/03/28 03:01:36;;;;;;;;;;;;;;;17.39;50.22;100339.31;2116531;28;19918;-65
2022/03/28 03:02:38;;;;;;;;;;;;;;;17.40;50.55;100341.06;2116322;28;20430;-65
2022/03/28 03:03:38;;;;;;;;;;;;;;;17.40;50.39;100341.06;2116385;28;20414;-63
2022/03/28 03:04:39;;;;;;;;;;;;;;;17.39;50.56;100336.59;2116426;28;19947;-64
2022/03/28 03:05:39;;;;;;;;;;;;;;;17.40;50.41;100338.34;2116184;28;20370;-64
2022/03/28 03:06:39;;;;;;;;;;;;;;;17.39;50.17;100333.84;2116448;28;19911;-64
2022/03/28 03:07:40;;;;;;;;;;;;;;;17.40;50.35;100346.50;2116564;28;20271;-64
2022/03/28 03:08:40;;;;;;;;;;;;;;;17.40;50.28;100330.16;2116552;28;19912;-65
2022/03/28 03:09:40;;;;;;;;;;;;;;;17.40;50.41;100332.03;2116453;28;19912;-65
2022/03/28 03:10:41;;;;;;;;;;;;;;;17.40;50.21;100338.34;2116343;28;19970;-65
2022/03/28 03:11:41;;;;;;;;;;;;;;;17.40;50.16;100343.78;2116406;28;20296;-63
2022/03/28 03:12:41;;;;;;;;;;;;;;;17.41;50.18;100341.91;2112007;28;19916;-65
2022/03/28 03:13:41;;;;;;;;;;;;;;;17.39;50.27;100339.31;2107090;28;19962;-64
2022/03/28 03:14:42;;;;;;;;;;;;;;;17.40;50.31;100335.59;2107300;28;19919;-64
2022/03/28 03:15:42;;;;;;;;;;;;;;;17.40;50.04;100332.03;2116263;28;19919;-64
2022/03/28 03:16:42;;;;;;;;;;;;;;;17.40;50.15;100330.16;2116236;28;20065;-65
2022/03/28 03:17:43;;;;;;;;;;;;;;;17.41;50.32;100336.47;2116282;28;19912;-65
2022/03/28 03:18:43;;;;;;;;;;;;;;;17.41;50.12;100331.00;2116094;28;19911;-65
2022/03/28 03:19:44;;;;;;;;;;;;;;;17.40;50.20;100330.16;2116317;28;19919;-65
2022/03/28 03:20:45;;;;;;;;;;;;;;;17.39;50.17;100333.84;2116261;28;19912;-65
2022/03/28 03:21:48;;;;;;;;;;;;;;;17.39;50.09;100331.13;2110114;28;19951;-65
2022/03/28 03:22:48;;;;;;;;;;;;;;;17.38;50.01;100323.97;2114992;28;19961;-65
2022/03/28 03:23:49;;;;;;;;;;;;;;;17.38;50.24;100332.16;2116167;28;20013;-64
2022/03/28 03:24:49;;;;;;;;;;;;;;;17.38;50.18;100334.88;2116178;28;19911;-65
2022/03/28 03:25:49;;;;;;;;;;;;;;;17.38;50.22;100325.84;2116450;28;19938;-65
2022/03/28 03:26:50;;;;;;;;;;;;;;;17.38;50.17;100325.84;2116471;28;19912;-65
2022/03/28 03:27:51;;;;;;;;;;;;;;;17.39;50.04;100333.00;2116190;28;19912;-65
2022/03/28 03:28:55;;;;;;;;;;;;;;;17.38;50.17;100328.56;2115960;28;19941;-65
2022/03/28 03:29:56;;;;;;;;;;;;;;;17.39;49.95;100333.00;2116017;28;19911;-65
2022/03/28 03:30:56;;;;;;;;;;;;;;;17.38;50.10;100326.69;2116286;28;20003;-65
2022/03/28 03:31:56;;;;;;;;;;;;;;;17.38;50.09;100323.13;2101771;28;19940;-65
2022/03/28 03:32:57;;;;;;;;;;;;;;;17.37;50.08;100319.53;2098454;28;20000;-65
2022/03/28 03:33:59;;;;;;;;;;;;;;;17.36;50.34;100318.63;2115139;28;20382;-65
2022/03/28 03:34:59;;;;;;;;;;;;;;;17.37;50.07;100314.09;2116005;28;20018;-65
2022/03/28 03:36:01;;;;;;;;;;;;;;;17.36;50.09;100318.63;2116120;28;20370;-65
2022/03/28 03:37:02;;;;;;;;;;;;;;;17.37;49.94;100324.97;2116054;28;19915;-65
2022/03/28 03:38:03;;;;;;;;;;;;;;;17.37;50.04;100319.53;2108302;28;19917;-65
2022/03/28 03:39:03;;;;;;;;;;;;;;;17.38;50.06;100315.78;2116124;28;19918;-63
2022/03/28 03:40:04;;;;;;;;;;;;;;;17.39;50.22;100322.09;2116080;28;19911;-64
2022/03/28 03:41:04;;;;;;;;;;;;;;;17.37;50.02;100303.19;2116184;28;19912;-64
2022/03/28 03:42:05;;;;;;;;;;;;;;;17.39;50.07;100306.59;2115967;28;19922;-64
2022/03/28 03:43:06;;;;;;;;;;;;;;;17.39;50.01;100306.59;2108174;28;19916;-64
2022/03/28 03:44:06;;;;;;;;;;;;;;;17.40;50.12;100302.06;2098518;28;20303;-64
2022/03/28 03:45:07;;;;;;;;;;;;;;;17.39;50.08;100295.72;2098021;28;20001;-64
2022/03/28 03:46:07;;;;;;;;;;;;;;;17.40;49.84;100296.59;2107570;28;19912;-64
2022/03/28 03:47:08;;;;;;;;;;;;;;;17.42;50.17;100294.56;2103325;28;20004;-64
2022/03/28 03:48:08;;;;;;;;;;;;;;;17.41;49.97;100299.16;2107110;28;19916;-65
2022/03/28 03:49:11;;;;;;;;;;;;;;;17.42;49.72;100306.38;2115809;28;19916;-64
2022/03/28 03:50:11;;;;;;;;;;;;;;;17.42;49.86;100300.03;2116174;28;19912;-64
2022/03/28 03:51:13;;;;;;;;;;;;;;;17.41;50.06;100299.16;2115869;28;19955;-64
2022/03/28 03:52:13;;;;;;;;;;;;;;;17.43;49.80;100301.78;2115893;28;20350;-64
2022/03/28 03:53:14;;;;;;;;;;;;;;;17.42;50.25;100305.47;2107688;28;20270;-64
2022/03/28 03:54:14;;;;;;;;;;;;;;;17.41;50.34;100304.63;2111281;28;19916;-64
2022/03/28 03:55:16;;;;;;;;;;;;;;;17.42;50.20;100306.38;2116153;28;19933;-64
2022/03/28 03:56:17;;;;;;;;;;;;;;;17.41;50.13;100310.06;2115997;28;19919;-64
2022/03/28 03:57:17;;;;;;;;;;;;;;;17.41;50.21;100315.53;2115916;28;19998;-64
2022/03/28 03:58:17;;;;;;;;;;;;;;;17.40;50.28;100319.25;2115843;28;20358;-64
2022/03/28 03:59:17;;;;;;;;;;;;;;;17.40;50.06;100313.81;2114329;28;20084;-64
2022/03/28 04:00:18;;;;;;;;;;;;;;;17.42;50.13;100319.09;2108032;28;19920;-64
2022/03/28 04:01:18;;;;;;;;;;;;;;;17.41;50.04;100314.66;2106665;28;19952;-65
2022/03/28 04:02:18;;;;;;;;;;;;;;;17.41;50.28;100315.53;2107151;28;19916;-65
2022/03/28 04:03:19;;;;;;;;;;;;;;;17.40;50.13;100308.34;2115942;28;20269;-65
2022/03/28 04:04:19;;;;;;;;;;;;;;;17.40;50.21;100313.81;2115780;28;20274;-65
2022/03/28 04:05:20;;;;;;;;;;;;;;;17.40;50.04;100308.34;2107780;28;19970;-65
2022/03/28 04:06:20;;;;;;;;;;;;;;;17.40;50.41;100319.25;2112371;28;19981;-64
2022/03/28 04:07:20;;;;;;;;;;;;;;;17.41;50.12;100310.06;2116048;28;20274;-65
2022/03/28 04:08:21;;;;;;;;;;;;;;;17.40;50.26;100308.34;2114899;28;19912;-65
2022/03/28 04:09:21;;;;;;;;;;;;;;;17.40;50.13;100316.53;2115966;28;19919;-65
2022/03/28 04:10:24;;;;;;;;;;;;;;;17.40;50.28;100308.34;2115938;28;19919;-65
2022/03/28 04:11:25;;;;;;;;;;;;;;;17.40;50.33;100305.63;2106690;28;19912;-65
2022/03/28 04:12:25;;;;;;;;;;;;;;;17.41;50.12;100310.06;2107089;28;19912;-65
2022/03/28 04:13:25;;;;;;;;;;;;;;;17.41;50.04;100304.63;2107013;28;19916;-65
2022/03/28 04:14:26;;;;;;;;;;;;;;;17.41;50.14;100309.22;2106606;28;20364;-65
2022/03/28 04:15:26;;;;;;;;;;;;;;;17.42;50.09;100310.94;2113260;28;20282;-65
2022/03/28 04:16:27;;;;;;;;;;;;;;;17.41;50.23;100310.06;2115789;28;19951;-65
2022/03/28 04:17:28;;;;;;;;;;;;;;;17.41;50.11;100304.63;2115761;28;19912;-65
2022/03/28 04:18:28;;;;;;;;;;;;;;;17.41;50.08;100301.91;2115785;28;19916;-65
2022/03/28 04:19:29;;;;;;;;;;;;;;;17.41;50.18;100310.06;2115928;28;19912;-65
2022/03/28 04:20:29;;;;;;;;;;;;;;;17.40;50.13;100305.63;2115749;28;19912;-65
2022/03/28 04:21:30;;;;;;;;;;;;;;;17.40;50.33;100302.91;2115739;28;19997;-65
2022/03/28 04:22:30;;;;;;;;;;;;;;;17.41;50.16;100303.75;2115774;28;19911;-65
2022/03/28 04:23:30;;;;;;;;;;;;;;;17.40;50.35;100305.63;2115813;28;19961;-65
2022/03/28 04:24:30;;;;;;;;;;;;;;;17.40;50.14;100308.34;2115705;28;19912;-65
2022/03/28 04:25:31;;;;;;;;;;;;;;;17.39;50.21;100306.59;2115763;28;19919;-64
2022/03/28 04:26:32;;;;;;;;;;;;;;;17.39;50.32;100306.59;2115723;28;19918;-64
2022/03/28 04:27:33;;;;;;;;;;;;;;;17.39;50.39;100311.19;2115797;28;19911;-64
2022/03/28 04:28:33;;;;;;;;;;;;;;;17.39;50.22;100305.75;2106539;28;19940;-64
2022/03/28 04:29:34;;;;;;;;;;;;;;;17.39;50.18;100311.19;2106800;28;19912;-64
2022/03/28 04:30:34;;;;;;;;;;;;;;;17.38;50.40;100313.06;2115665;28;20362;-64
2022/03/28 04:31:37;;;;;;;;;;;;;;;17.38;50.24;100313.06;2115904;28;19912;-64
2022/03/28 04:32:38;;;;;;;;;;;;;;;17.38;50.11;100304.03;2115745;28;20294;-64
2022/03/28 04:33:38;;;;;;;;;;;;;;;17.38;50.45;100310.34;2106324;28;20014;-65
2022/03/28 04:34:38;;;;;;;;;;;;;;;17.37;50.24;100300.47;2106898;28;19920;-65
2022/03/28 04:35:41;;;;;;;;;;;;;;;17.37;50.34;100303.19;2115610;28;19967;-65
2022/03/28 04:36:41;;;;;;;;;;;;;;;17.38;50.15;100298.59;2115785;28;19912;-64
2022/03/28 04:37:42;;;;;;;;;;;;;;;17.37;50.28;100292.28;2115411;28;19911;-63
2022/03/28 04:38:43;;;;;;;;;;;;;;;17.36;50.50;100291.41;2115659;28;19911;-65
2022/03/28 04:39:43;;;;;;;;;;;;;;;17.36;50.26;100293.25;2113830;28;19916;-64
2022/03/28 04:40:43;;;;;;;;;;;;;;;17.36;50.07;100296.00;2099655;28;19946;-65
2022/03/28 04:41:44;;;;;;;;;;;;;;;17.36;50.26;100296.00;2106598;28;19912;-64
2022/03/28 04:42:45;;;;;;;;;;;;;;;17.36;50.26;100294.13;2115744;28;19915;-64
2022/03/28 04:43:45;;;;;;;;;;;;;;;17.37;50.26;100286.84;2115830;28;20385;-64
2022/03/28 04:44:45;;;;;;;;;;;;;;;17.36;50.27;100288.66;2106335;28;20286;-64
2022/03/28 04:45:46;;;;;;;;;;;;;;;17.36;50.21;100285.09;2106394;28;20259;-64
2022/03/28 04:46:46;;;;;;;;;;;;;;;17.37;50.15;100292.28;2115702;28;19988;-64
2022/03/28 04:47:47;;;;;;;;;;;;;;;17.37;50.25;100292.28;2115839;28;20270;-64
2022/03/28 04:48:48;;;;;;;;;;;;;;;17.37;50.25;100289.56;2115664;28;19918;-65
2022/03/28 04:49:49;;;;;;;;;;;;;;;17.38;50.08;100287.69;2115779;28;19951;-64
2022/03/28 04:50:49;;;;;;;;;;;;;;;17.37;50.13;100275.94;2115320;28;19919;-64
2022/03/28 04:51:50;;;;;;;;;;;;;;;17.37;50.20;100284.09;2113062;28;20313;-64
2022/03/28 04:52:50;;;;;;;;;;;;;;;17.37;50.13;100281.38;2114574;28;19911;-65
2022/03/28 04:53:50;;;;;;;;;;;;;;;17.36;50.33;100285.94;2115569;28;19916;-65
2022/03/28 04:54:51;;;;;;;;;;;;;;;17.36;50.30;100280.50;2115448;28;19917;-65
2022/03/28 04:55:51;;;;;;;;;;;;;;;17.35;50.46;100278.78;2115466;28;20270;-65
2022/03/28 04:56:51;;;;;;;;;;;;;;;17.36;50.36;100274.19;2115544;28;20351;-65
2022/03/28 04:57:52;;;;;;;;;;;;;;;17.36;50.22;100274.19;2115584;28;19919;-65
2022/03/28 04:58:52;;;;;;;;;;;;;;;17.35;50.20;100272.47;2115531;28;19919;-65
2022/03/28 04:59:52;;;;;;;;;;;;;;;17.34;50.20;100268.00;2115536;28;19934;-65
2022/03/28 05:00:53;;;;;;;;;;;;;;;17.34;50.21;100268.00;2115417;28;19919;-65
2022/03/28 05:01:53;;;;;;;;;;;;;;;17.34;50.21;100266.16;2115591;28;19919;-65
2022/03/28 05:02:54;;;;;;;;;;;;;;;17.33;50.21;100269.88;2115417;28;20286;-65
2022/03/28 05:03:54;;;;;;;;;;;;;;;17.33;50.15;100261.69;2114033;28;20101;-65
2022/03/28 05:04:54;;;;;;;;;;;;;;;17.34;50.10;100265.28;2107358;28;19916;-65
2022/03/28 05:05:55;;;;;;;;;;;;;;;17.34;50.20;100270.72;2106976;28;19923;-65
2022/03/28 05:06:55;;;;;;;;;;;;;;;17.34;50.21;100259.81;2107111;28;20281;-65
2022/03/28 05:07:56;;;;;;;;;;;;;;;17.33;50.32;100264.41;2110247;28;19911;-64
2022/03/28 05:08:56;;;;;;;;;;;;;;;17.34;50.20;100273.44;2115523;28;19919;-64
2022/03/28 05:09:57;;;;;;;;;;;;;;;17.34;50.20;100270.72;2115763;28;20350;-64
2022/03/28 05:10:57;;;;;;;;;;;;;;;17.32;50.37;100272.72;2112765;28;19912;-64
2022/03/28 05:11:58;;;;;;;;;;;;;;;17.33;50.43;100266.28;2107048;28;20326;-64